Time;durP1;ratioP1;P1;durP2;ratioP2;P2;SDS_P1;SDS_P2;PMS_P1;PMS_P2;Temp;Humidity;BMP_temperature;BMP_pressure;BME280_temperature;BME280_humidity;BME280_pressure;Samples;Min_cycle;Max_cycle;Signal;HPM_P1;HPM_P2
2022/03/24 00:00:25;;;;;;;65.40;37.00;;;9.80;99.90;;;;;;4993510;28;20034;-63
2022/03/24 00:02:51;;;;;;;70.22;36.88;;;9.80;99.90;;;;;;4999745;28;20022;-65
2022/03/24 00:05:17;;;;;;;68.40;37.03;;;9.80;99.90;;;;;;5011196;28;20076;-64
2022/03/24 00:07:43;;;;;;;70.47;36.60;;;9.80;99.90;;;;;;5018151;28;20153;-63
2022/03/24 00:10:10;;;;;;;68.53;35.67;;;9.80;99.90;;;;;;5013386;28;20100;-63
2022/03/24 00:12:35;;;;;;;67.65;35.72;;;9.70;99.90;;;;;;5013603;28;20022;-63
2022/03/24 00:15:03;;;;;;;66.43;36.30;;;9.70;99.90;;;;;;5010319;28;20033;-62
2022/03/24 00:17:30;;;;;;;73.00;41.28;;;9.70;99.90;;;;;;5014073;28;20045;-62
2022/03/24 00:19:56;;;;;;;75.40;43.38;;;9.60;99.90;;;;;;5024215;28;20067;-63
2022/03/24 00:22:21;;;;;;;71.85;41.17;;;9.60;99.90;;;;;;5018605;28;20112;-63
2022/03/24 00:24:47;;;;;;;76.85;44.15;;;9.60;99.90;;;;;;5029571;28;20085;-63
2022/03/24 00:27:14;;;;;;;75.35;39.53;;;9.50;99.90;;;;;;5018141;28;20485;-62
2022/03/24 00:29:40;;;;;;;71.68;41.60;;;9.50;99.90;;;;;;5024451;28;20022;-63
2022/03/24 00:32:06;;;;;;;73.88;41.17;;;9.50;99.90;;;;;;5024928;28;20033;-62
2022/03/24 00:34:31;;;;;;;82.35;48.45;;;9.40;99.90;;;;;;5016824;28;20040;-63
2022/03/24 00:36:57;;;;;;;78.47;45.33;;;9.40;99.90;;;;;;5025402;28;20120;-62
2022/03/24 00:39:23;;;;;;;67.35;36.80;;;9.40;99.90;;;;;;5030967;28;20037;-62
2022/03/24 00:41:48;;;;;;;72.15;37.88;;;9.40;99.90;;;;;;5018966;28;20030;-62
2022/03/24 00:44:14;;;;;;;74.13;39.10;;;9.30;99.90;;;;;;5026166;28;20030;-61
2022/03/24 00:46:39;;;;;;;75.93;38.45;;;9.30;99.90;;;;;;5015518;28;20037;-63
2022/03/24 00:49:05;;;;;;;69.57;39.17;;;9.30;99.90;;;;;;5025052;28;20031;-64
2022/03/24 00:51:30;;;;;;;70.93;37.63;;;9.20;99.90;;;;;;5019272;28;20037;-62
2022/03/24 00:53:56;;;;;;;67.57;38.58;;;9.20;99.90;;;;;;5020904;28;20040;-62
2022/03/24 00:56:23;;;;;;;65.10;36.50;;;9.20;99.90;;;;;;5027112;28;20065;-62
2022/03/24 00:58:49;;;;;;;69.50;36.50;;;9.20;99.90;;;;;;5004337;28;20038;-63
2022/03/24 01:01:15;;;;;;;66.07;35.42;;;9.10;99.90;;;;;;5027865;28;20037;-63
2022/03/24 01:03:42;;;;;;;71.43;35.53;;;9.10;99.90;;;;;;5021304;28;20033;-63
2022/03/24 01:06:09;;;;;;;69.30;36.38;;;9.10;99.90;;;;;;5019522;28;20090;-63
2022/03/24 01:08:35;;;;;;;73.47;37.22;;;9.00;99.90;;;;;;5015270;28;20092;-63
2022/03/24 01:11:01;;;;;;;68.43;36.13;;;9.00;99.90;;;;;;5021256;28;20021;-63
2022/03/24 01:13:28;;;;;;;71.30;37.45;;;9.00;99.90;;;;;;5011566;28;20029;-63
2022/03/24 01:15:54;;;;;;;71.88;37.58;;;9.00;99.90;;;;;;5022827;28;20493;-62
2022/03/24 01:18:20;;;;;;;67.80;37.17;;;8.90;99.90;;;;;;5017449;28;20360;-64
2022/03/24 01:20:46;;;;;;;71.28;40.13;;;9.00;99.90;;;;;;5016722;28;20044;-62
2022/03/24 01:23:12;;;;;;;72.80;44.72;;;8.90;99.90;;;;;;5011981;28;20022;-62
2022/03/24 01:25:42;;;;;;;85.15;47.83;;;8.90;99.90;;;;;;5021073;28;20067;-62
2022/03/24 01:28:13;;;;;;;77.72;47.92;;;8.90;99.90;;;;;;5023601;28;20125;-63
2022/03/24 01:30:39;;;;;;;87.65;53.60;;;8.90;99.90;;;;;;5032711;28;20029;-63
2022/03/24 01:33:05;;;;;;;71.05;41.58;;;8.90;99.90;;;;;;5019994;28;20013;-62
2022/03/24 01:35:31;;;;;;;71.15;38.38;;;8.80;99.90;;;;;;5028620;28;20041;-63
2022/03/24 01:37:57;;;;;;;85.60;54.58;;;8.80;99.90;;;;;;5013217;28;20049;-62
2022/03/24 01:40:24;;;;;;;74.63;42.47;;;8.80;99.90;;;;;;5021524;28;20445;-63
2022/03/24 01:42:50;;;;;;;67.13;35.92;;;8.80;99.90;;;;;;5018557;28;20473;-63
2022/03/24 01:45:16;;;;;;;73.00;39.55;;;8.70;99.90;;;;;;5023334;28;20029;-63
2022/03/24 01:47:41;;;;;;;75.05;39.28;;;8.70;99.90;;;;;;5020412;28;20041;-62
2022/03/24 01:50:09;;;;;;;73.22;38.63;;;8.70;99.90;;;;;;5014107;28;20026;-63
2022/03/24 01:52:35;;;;;;;77.65;43.30;;;8.70;99.90;;;;;;5030557;28;20474;-63
2022/03/24 01:55:03;;;;;;;84.75;51.95;;;8.70;99.90;;;;;;5019491;28;20044;-63
2022/03/24 01:57:29;;;;;;;78.93;47.78;;;8.60;99.90;;;;;;5027008;28;20026;-63
2022/03/24 01:59:55;;;;;;;87.25;49.28;;;8.60;99.90;;;;;;5023220;28;20018;-63
2022/03/24 02:02:21;;;;;;;81.07;48.13;;;8.60;99.90;;;;;;5029725;28;20032;-63
2022/03/24 02:04:47;;;;;;;74.30;41.92;;;8.60;99.90;;;;;;5018789;28;20037;-63
2022/03/24 02:07:13;;;;;;;77.90;44.22;;;8.50;99.90;;;;;;5030073;28;20088;-62
2022/03/24 02:09:39;;;;;;;84.53;45.15;;;8.50;99.90;;;;;;5024346;28;20057;-63
2022/03/24 02:12:10;;;;;;;83.57;47.80;;;8.40;99.90;;;;;;5026457;28;20029;-62
2022/03/24 02:14:36;;;;;;;127.78;74.05;;;8.40;99.90;;;;;;5017381;28;20036;-63
2022/03/24 02:17:03;;;;;;;113.60;63.42;;;8.40;99.90;;;;;;5031453;28;20152;-62
2022/03/24 02:19:29;;;;;;;88.53;48.33;;;8.30;99.90;;;;;;5022566;28;20033;-63
2022/03/24 02:21:58;;;;;;;78.60;40.47;;;8.30;99.90;;;;;;5024320;28;20038;-63
2022/03/24 02:24:25;;;;;;;73.40;39.35;;;8.30;99.90;;;;;;5028184;28;20046;-63
2022/03/24 02:26:52;;;;;;;71.65;37.65;;;8.30;99.90;;;;;;5016675;28;20061;-63
2022/03/24 02:29:19;;;;;;;66.75;36.30;;;8.20;99.90;;;;;;5027937;28;20026;-63
2022/03/24 02:31:50;;;;;;;72.25;36.15;;;8.20;99.90;;;;;;5012510;28;20030;-61
2022/03/24 02:37:09;;;;;;;69.18;34.80;;;8.00;99.90;;;;;;5003536;28;20128;-62
2022/03/24 02:39:38;;;;;;;60.72;32.97;;;8.00;99.90;;;;;;4994184;28;20086;-63
2022/03/24 02:42:04;;;;;;;65.97;34.80;;;8.00;99.90;;;;;;4995744;28;20474;-62
2022/03/24 02:44:30;;;;;;;69.22;36.28;;;7.90;99.90;;;;;;4995445;28;20431;-63
2022/03/24 02:46:58;;;;;;;69.70;34.45;;;7.90;99.90;;;;;;5011056;28;20033;-63
2022/03/24 02:49:26;;;;;;;72.60;38.30;;;7.80;99.90;;;;;;5013888;28;20048;-63
2022/03/24 02:51:54;;;;;;;71.75;37.95;;;7.80;99.90;;;;;;5013876;28;20471;-63
2022/03/24 02:54:21;;;;;;;73.68;40.33;;;7.80;99.90;;;;;;5014554;28;20025;-63
2022/03/24 02:56:47;;;;;;;84.90;43.67;;;7.70;99.90;;;;;;5014507;28;20045;-62
2022/03/24 02:59:13;;;;;;;87.35;44.83;;;7.70;99.90;;;;;;5014674;28;20466;-63
2022/03/24 03:01:45;;;;;;;80.95;42.50;;;7.60;99.90;;;;;;5014694;28;20056;-63
2022/03/24 03:04:12;;;;;;;83.25;43.70;;;7.60;99.90;;;;;;5014650;28;20083;-62
2022/03/24 03:06:38;;;;;;;85.47;45.03;;;7.50;99.90;;;;;;5013190;28;20033;-64
2022/03/24 03:09:05;;;;;;;88.82;45.08;;;7.50;99.90;;;;;;5014269;28;20389;-63
2022/03/24 03:11:31;;;;;;;81.18;39.97;;;7.50;99.90;;;;;;5014987;28;20022;-63
2022/03/24 03:13:58;;;;;;;75.00;39.70;;;7.40;99.90;;;;;;5013425;28;20473;-63
2022/03/24 03:16:25;;;;;;;88.05;44.13;;;7.40;99.90;;;;;;5014532;28;20073;-63
2022/03/24 03:18:51;;;;;;;80.47;40.08;;;7.40;99.90;;;;;;5014332;28;20030;-62
2022/03/24 03:21:17;;;;;;;74.80;37.95;;;7.30;99.90;;;;;;5013975;28;20026;-64
2022/03/24 03:23:43;;;;;;;78.20;39.28;;;7.30;99.90;;;;;;5014573;28;20026;-63
2022/03/24 03:26:11;;;;;;;81.70;40.97;;;7.30;99.90;;;;;;5021743;28;20068;-63
2022/03/24 03:28:37;;;;;;;84.45;40.88;;;7.30;99.90;;;;;;5014307;28;20030;-63
2022/03/24 03:31:03;;;;;;;78.07;38.72;;;7.30;99.90;;;;;;5013937;28;20026;-63
2022/03/24 03:33:29;;;;;;;87.90;41.03;;;7.30;99.90;;;;;;5013033;28;20080;-63
2022/03/24 03:35:55;;;;;;;83.00;39.35;;;7.30;99.90;;;;;;5013902;28;20038;-63
2022/03/24 03:38:21;;;;;;;80.65;39.13;;;7.30;99.90;;;;;;5014137;28;20084;-63
2022/03/24 03:40:47;;;;;;;78.05;39.38;;;7.40;99.90;;;;;;5014171;28;20390;-62
2022/03/24 03:43:14;;;;;;;79.90;38.80;;;7.40;99.90;;;;;;5013968;28;20459;-62
2022/03/24 03:45:42;;;;;;;75.20;37.75;;;7.30;99.90;;;;;;5012525;28;20178;-63
2022/03/24 03:48:09;;;;;;;82.93;40.15;;;7.40;99.90;;;;;;5013124;28;20454;-64
2022/03/24 03:50:35;;;;;;;74.00;38.15;;;7.40;99.90;;;;;;5013829;28;20477;-63
2022/03/24 03:53:01;;;;;;;79.65;38.83;;;7.40;99.90;;;;;;5013690;28;20030;-63
2022/03/24 03:55:27;;;;;;;70.00;35.45;;;7.40;99.90;;;;;;5013727;28;20531;-63
2022/03/24 03:57:53;;;;;;;66.43;34.55;;;7.40;99.90;;;;;;5014050;28;20033;-63
2022/03/24 04:03:04;;;;;;;64.15;33.33;;;7.40;99.90;;;;;;5013818;28;20123;-63
2022/03/24 04:05:33;;;;;;;63.70;33.88;;;7.30;99.90;;;;;;5012217;28;20497;-63
2022/03/24 04:08:03;;;;;;;74.03;37.65;;;7.30;99.90;;;;;;5013608;28;20033;-63
2022/03/24 04:10:30;;;;;;;69.80;35.72;;;7.30;99.90;;;;;;5013767;28;20045;-62
2022/03/24 04:12:58;;;;;;;65.10;33.35;;;7.30;99.90;;;;;;5028843;28;20026;-62
2022/03/24 04:15:24;;;;;;;63.40;33.95;;;7.30;99.90;;;;;;5013414;28;20066;-63
2022/03/24 04:17:50;;;;;;;63.13;32.33;;;7.30;99.90;;;;;;5013196;28;20026;-63
2022/03/24 04:20:20;;;;;;;70.32;33.20;;;7.30;99.90;;;;;;5012921;28;20101;-63
2022/03/24 04:22:48;;;;;;;73.65;34.92;;;7.30;99.90;;;;;;5011557;28;20081;-63
2022/03/24 04:25:14;;;;;;;68.60;35.47;;;7.20;99.90;;;;;;5011434;28;20136;-64
2022/03/24 04:27:40;;;;;;;68.70;35.72;;;7.20;99.90;;;;;;5013509;28;20034;-63
2022/03/24 04:30:06;;;;;;;65.45;34.83;;;7.20;99.90;;;;;;5011446;28;20033;-63
2022/03/24 04:32:32;;;;;;;75.22;36.00;;;7.10;99.90;;;;;;5013788;28;20032;-64
2022/03/24 04:34:57;;;;;;;60.92;32.85;;;7.10;99.90;;;;;;5012729;28;20124;-63
2022/03/24 04:37:25;;;;;;;69.38;35.83;;;7.00;99.90;;;;;;5013049;28;20108;-63
2022/03/24 04:39:50;;;;;;;68.80;35.17;;;7.00;99.90;;;;;;5013357;28;20431;-63
2022/03/24 04:42:17;;;;;;;66.78;34.40;;;6.90;99.90;;;;;;5011505;28;20109;-63
2022/03/24 04:44:42;;;;;;;66.22;34.53;;;6.90;99.90;;;;;;5011519;28;20121;-64
2022/03/24 04:47:08;;;;;;;73.38;35.30;;;6.90;99.90;;;;;;5011946;28;20105;-67
2022/03/24 04:49:33;;;;;;;70.35;34.92;;;6.80;99.90;;;;;;5012830;28;20033;-67
2022/03/24 04:51:59;;;;;;;75.80;37.03;;;6.80;99.90;;;;;;5013173;28;20386;-64
2022/03/24 04:54:24;;;;;;;68.95;36.13;;;6.80;99.90;;;;;;5013032;28;20446;-62
2022/03/24 04:56:50;;;;;;;72.28;34.40;;;6.80;99.90;;;;;;5012856;28;20100;-62
2022/03/24 04:59:16;;;;;;;71.18;35.42;;;6.80;99.90;;;;;;5013061;28;20148;-65
2022/03/24 05:01:41;;;;;;;70.68;34.30;;;6.80;99.90;;;;;;5016897;28;20041;-67
2022/03/24 05:04:07;;;;;;;63.00;33.08;;;6.70;99.90;;;;;;5013528;28;20050;-66
2022/03/24 05:06:34;;;;;;;68.90;34.67;;;6.80;99.90;;;;;;5014506;28;20033;-64
2022/03/24 05:08:59;;;;;;;68.05;35.38;;;6.70;99.90;;;;;;5016699;28;20030;-62
2022/03/24 05:11:25;;;;;;;70.38;34.97;;;6.70;99.90;;;;;;5015440;28;20032;-64
2022/03/24 05:13:51;;;;;;;72.45;35.35;;;6.70;99.90;;;;;;5016513;28;20038;-66
2022/03/24 05:16:18;;;;;;;73.35;34.13;;;6.70;99.90;;;;;;5015288;28;20038;-64
2022/03/24 05:18:43;;;;;;;71.43;35.35;;;6.80;99.90;;;;;;5014951;28;20030;-62
2022/03/24 05:21:09;;;;;;;70.95;35.05;;;6.70;99.90;;;;;;5016903;28;20036;-65
2022/03/24 05:23:35;;;;;;;72.32;34.85;;;6.70;99.90;;;;;;5016355;28;20056;-66
2022/03/24 05:26:01;;;;;;;70.38;37.10;;;6.80;99.90;;;;;;5016021;28;20053;-67
2022/03/24 05:28:26;;;;;;;69.63;33.92;;;6.90;99.90;;;;;;5015508;28;20045;-66
2022/03/24 05:30:52;;;;;;;66.90;36.05;;;6.90;99.90;;;;;;5016410;28;20068;-65
2022/03/24 05:33:18;;;;;;;64.72;35.83;;;6.90;99.90;;;;;;5016490;28;20434;-65
2022/03/24 05:35:43;;;;;;;72.15;35.00;;;6.90;99.90;;;;;;5031653;28;20337;-65
2022/03/24 05:38:09;;;;;;;68.18;35.40;;;6.90;99.90;;;;;;5016130;28;20018;-64
2022/03/24 05:40:38;;;;;;;69.82;33.70;;;6.90;99.90;;;;;;5016230;28;20033;-67
2022/03/24 05:43:04;;;;;;;74.72;35.85;;;7.00;99.90;;;;;;5014420;28;20068;-67
2022/03/24 05:45:30;;;;;;;64.65;34.40;;;7.00;99.90;;;;;;5016144;28;20061;-66
2022/03/24 05:47:56;;;;;;;69.63;34.30;;;7.00;99.90;;;;;;5015997;28;20426;-67
2022/03/24 05:50:24;;;;;;;65.03;33.75;;;7.00;99.90;;;;;;5016134;28;20026;-65
2022/03/24 05:52:50;;;;;;;70.78;33.67;;;7.00;99.90;;;;;;5018996;28;20026;-63
2022/03/24 05:55:17;;;;;;;63.50;33.92;;;7.00;99.90;;;;;;5015156;28;20041;-63
2022/03/24 05:57:44;;;;;;;66.05;33.08;;;7.00;99.90;;;;;;5016474;28;20057;-65
2022/03/24 06:00:10;;;;;;;66.78;34.80;;;7.10;99.90;;;;;;5015893;28;20049;-66
2022/03/24 06:02:36;;;;;;;66.57;34.90;;;7.10;99.90;;;;;;5016212;28;20045;-66
2022/03/24 06:05:09;;;;;;;71.65;37.20;;;7.10;99.90;;;;;;5016460;28;20029;-66
2022/03/24 06:07:36;;;;;;;74.63;38.05;;;7.20;99.90;;;;;;5014232;28;20026;-65
2022/03/24 06:10:02;;;;;;;71.72;36.70;;;7.20;99.90;;;;;;5009179;28;20390;-64
2022/03/24 06:12:27;;;;;;;73.38;38.40;;;7.30;99.90;;;;;;5014680;28;20029;-67
2022/03/24 06:14:53;;;;;;;75.75;37.70;;;7.40;99.90;;;;;;5015527;28;20100;-65
2022/03/24 06:17:20;;;;;;;66.70;36.50;;;7.40;99.90;;;;;;5015679;28;20544;-64
2022/03/24 06:19:47;;;;;;;74.10;39.13;;;7.50;99.90;;;;;;5015420;28;20113;-62
2022/03/24 06:22:13;;;;;;;73.07;38.78;;;7.50;99.90;;;;;;5015561;28;20222;-66
2022/03/24 06:24:39;;;;;;;71.68;36.92;;;7.60;99.90;;;;;;5015185;28;20481;-67
2022/03/24 06:27:04;;;;;;;71.35;36.45;;;7.70;99.90;;;;;;5015501;28;20034;-66
2022/03/24 06:29:31;;;;;;;71.90;37.63;;;7.70;99.90;;;;;;5013530;28;20153;-63
2022/03/24 06:31:57;;;;;;;72.75;38.90;;;7.80;99.90;;;;;;5015455;28;20380;-67
2022/03/24 06:34:23;;;;;;;65.80;36.92;;;7.90;99.90;;;;;;5014987;28;20390;-65
2022/03/24 06:36:50;;;;;;;71.95;37.90;;;7.90;99.90;;;;;;5015651;28;20048;-66
2022/03/24 06:39:16;;;;;;;73.45;39.53;;;8.00;99.90;;;;;;5014892;28;20068;-66
2022/03/24 06:41:42;;;;;;;73.43;39.45;;;8.10;99.90;;;;;;5015345;28;20038;-65
2022/03/24 06:44:08;;;;;;;69.07;39.60;;;8.10;99.90;;;;;;5015021;28;20037;-63
2022/03/24 06:46:35;;;;;;;75.90;39.22;;;8.30;99.90;;;;;;5015486;28;20049;-65
2022/03/24 06:49:01;;;;;;;78.68;40.42;;;8.30;99.90;;;;;;5014810;28;20366;-62
2022/03/24 06:51:26;;;;;;;72.38;38.13;;;8.40;99.90;;;;;;5015284;28;20022;-66
2022/03/24 06:53:52;;;;;;;68.10;38.63;;;8.50;99.90;;;;;;5013742;28;20104;-61
2022/03/24 06:56:18;;;;;;;71.32;37.78;;;8.60;99.90;;;;;;5014750;28;20121;-66
2022/03/24 06:58:43;;;;;;;70.63;39.15;;;8.70;99.90;;;;;;5012475;28;20026;-65
2022/03/24 07:01:10;;;;;;;67.38;35.88;;;8.80;99.90;;;;;;5014017;28;20045;-66
2022/03/24 07:03:37;;;;;;;73.60;42.80;;;8.90;99.90;;;;;;5015068;28;20022;-64
2022/03/24 07:06:04;;;;;;;74.32;39.42;;;9.00;99.90;;;;;;5015969;28;20060;-63
2022/03/24 07:08:30;;;;;;;75.25;40.22;;;9.20;99.90;;;;;;5014825;28;20025;-62
2022/03/24 07:10:55;;;;;;;73.85;39.78;;;9.30;99.90;;;;;;5015138;28;20033;-65
2022/03/24 07:13:21;;;;;;;75.88;39.47;;;9.40;99.90;;;;;;5014613;28;20041;-65
2022/03/24 07:15:47;;;;;;;78.43;42.58;;;9.50;99.90;;;;;;5014357;28;20073;-67
2022/03/24 07:18:13;;;;;;;69.60;39.67;;;9.70;99.90;;;;;;5014942;28;20116;-66
2022/03/24 07:20:39;;;;;;;72.78;40.75;;;9.90;99.90;;;;;;5014776;28;20029;-69
2022/03/24 07:23:06;;;;;;;74.72;42.10;;;10.00;99.90;;;;;;5014613;28;20034;-69
2022/03/24 07:25:33;;;;;;;72.45;42.90;;;10.20;99.90;;;;;;5014502;28;20041;-64
2022/03/24 07:28:00;;;;;;;70.78;42.45;;;10.30;99.90;;;;;;5014125;28;20109;-64
2022/03/24 07:30:26;;;;;;;67.97;37.95;;;10.50;99.90;;;;;;5026659;28;20032;-68
2022/03/24 07:32:54;;;;;;;67.60;40.83;;;10.70;99.90;;;;;;5013787;28;20099;-68
2022/03/24 07:35:21;;;;;;;64.47;38.03;;;10.90;99.90;;;;;;5013886;28;20041;-67
2022/03/24 07:37:48;;;;;;;65.50;39.03;;;11.10;99.90;;;;;;5010300;28;20034;-65
2022/03/24 07:40:18;;;;;;;67.47;38.92;;;11.30;99.90;;;;;;5012908;28;20029;-67
2022/03/24 07:42:47;;;;;;;62.95;38.05;;;11.50;99.90;;;;;;5014215;28;20042;-67
2022/03/24 07:45:13;;;;;;;60.47;38.63;;;11.80;99.90;;;;;;5013992;28;20030;-65
2022/03/24 07:48:09;;;;;;;61.17;37.47;;;12.00;99.90;;;;;;5014086;28;20428;-65
2022/03/24 07:50:36;;;;;;;66.18;37.45;;;12.50;99.90;;;;;;5013968;28;20033;-66
2022/03/24 07:53:14;;;;;;;62.97;37.33;;;13.20;99.90;;;;;;5014395;28;20025;-65
2022/03/24 07:55:42;;;;;;;61.55;35.53;;;13.90;99.90;;;;;;5014029;28;20096;-68
2022/03/24 07:58:09;;;;;;;60.33;37.42;;;14.70;99.90;;;;;;5013407;28;20026;-63
2022/03/24 08:00:35;;;;;;;57.15;35.17;;;15.50;99.90;;;;;;5013079;28;20116;-66
2022/03/24 08:03:01;;;;;;;57.20;32.95;;;16.30;99.90;;;;;;5013615;28;20378;-63
2022/03/24 08:05:26;;;;;;;50.42;33.42;;;17.10;99.70;;;;;;5013906;28;20037;-63
2022/03/24 08:07:56;;;;;;;49.28;33.03;;;18.00;98.50;;;;;;5013847;28;20029;-63
2022/03/24 08:10:22;;;;;;;48.55;33.13;;;18.90;97.60;;;;;;5013406;28;20021;-65
2022/03/24 08:12:48;;;;;;;49.53;31.80;;;19.80;96.10;;;;;;5020716;28;20520;-66
2022/03/24 08:15:13;;;;;;;51.03;33.55;;;20.70;94.80;;;;;;5022015;28;20052;-67
2022/03/24 08:17:39;;;;;;;50.67;32.85;;;21.60;93.10;;;;;;5013718;28;20030;-67
2022/03/24 08:20:06;;;;;;;47.92;32.03;;;22.30;91.60;;;;;;5013833;28;20025;-67
2022/03/24 08:22:32;;;;;;;48.78;32.22;;;23.10;89.30;;;;;;5013705;28;20033;-66
2022/03/24 08:24:57;;;;;;;45.85;33.60;;;23.70;86.10;;;;;;5013468;28;20056;-63
2022/03/24 08:27:23;;;;;;;43.92;33.75;;;24.20;82.60;;;;;;5012818;28;20022;-65
2022/03/24 08:29:49;;;;;;;46.90;33.90;;;24.70;81.10;;;;;;5007806;28;20034;-67
2022/03/24 08:32:15;;;;;;;46.33;33.72;;;25.20;79.50;;;;;;5013618;28;20459;-64
2022/03/24 08:34:40;;;;;;;43.05;32.70;;;25.70;76.90;;;;;;5012860;28;20037;-64
2022/03/24 08:37:06;;;;;;;42.95;33.88;;;26.10;72.80;;;;;;5013388;28;20033;-64
2022/03/24 08:39:32;;;;;;;42.22;33.25;;;26.30;70.90;;;;;;5012649;28;20140;-65
2022/03/24 08:41:58;;;;;;;44.15;33.22;;;26.50;70.70;;;;;;5012763;28;20029;-63
2022/03/24 08:44:23;;;;;;;43.33;33.53;;;26.70;68.70;;;;;;5012926;28;20029;-63
2022/03/24 08:46:49;;;;;;;45.08;34.88;;;26.90;67.40;;;;;;5027887;28;20029;-63
2022/03/24 08:49:15;;;;;;;46.88;34.85;;;27.20;68.00;;;;;;5012951;28;20081;-65
2022/03/24 08:51:41;;;;;;;42.08;34.63;;;27.50;67.00;;;;;;5013382;28;20014;-67
2022/03/24 08:54:07;;;;;;;44.03;35.47;;;27.70;64.50;;;;;;5013325;28;20037;-67
2022/03/24 08:56:33;;;;;;;43.38;33.30;;;27.90;64.80;;;;;;5012781;28;20405;-64
2022/03/24 08:58:59;;;;;;;46.08;35.78;;;28.20;63.40;;;;;;5013193;28;20030;-64
2022/03/24 09:01:24;;;;;;;42.38;34.22;;;28.60;63.80;;;;;;5012866;28;20037;-63
2022/03/24 09:03:51;;;;;;;41.83;35.13;;;29.00;62.30;;;;;;5012802;28;20022;-65
2022/03/24 09:06:17;;;;;;;41.20;33.97;;;29.40;62.00;;;;;;5012441;28;20041;-66
2022/03/24 09:08:43;;;;;;;37.28;32.78;;;29.70;59.10;;;;;;5011945;28;20366;-63
2022/03/24 09:11:09;;;;;;;40.25;33.08;;;30.00;57.80;;;;;;5007785;28;20044;-66
2022/03/24 09:13:35;;;;;;;41.60;33.80;;;30.30;57.20;;;;;;5009069;28;20040;-64
2022/03/24 09:16:01;;;;;;;41.80;33.22;;;30.70;56.40;;;;;;5012360;28;20049;-67
2022/03/24 09:18:26;;;;;;;42.75;31.50;;;31.00;55.50;;;;;;5012810;28;20021;-65
2022/03/24 09:20:52;;;;;;;49.00;32.53;;;31.40;54.20;;;;;;5013198;28;20470;-66
2022/03/24 09:23:18;;;;;;;39.40;32.45;;;31.70;52.90;;;;;;5013263;28;20041;-65
2022/03/24 09:25:44;;;;;;;38.63;30.98;;;31.90;51.50;;;;;;5012488;28;20038;-63
2022/03/24 09:28:10;;;;;;;36.63;30.20;;;31.90;50.90;;;;;;5010693;28;20040;-65
2022/03/24 09:30:36;;;;;;;37.47;30.33;;;32.00;50.50;;;;;;4993349;28;20434;-64
2022/03/24 09:33:02;;;;;;;33.08;27.02;;;32.20;50.10;;;;;;5012713;28;20025;-64
2022/03/24 09:35:28;;;;;;;33.65;25.50;;;32.40;48.30;;;;;;5013020;28;20485;-65
2022/03/24 09:37:54;;;;;;;31.38;25.17;;;32.70;45.30;;;;;;5012759;28;20500;-67
2022/03/24 09:40:19;;;;;;;30.45;23.95;;;32.90;43.70;;;;;;5012445;28;20033;-64
2022/03/24 09:42:46;;;;;;;23.92;18.60;;;33.00;42.90;;;;;;5012112;28;20041;-62
2022/03/24 09:45:13;;;;;;;25.55;19.60;;;33.20;42.30;;;;;;5012641;28;20038;-64
2022/03/24 09:47:40;;;;;;;29.08;19.60;;;33.40;41.90;;;;;;5012883;28;20026;-66
2022/03/24 09:50:07;;;;;;;27.95;17.33;;;33.60;42.00;;;;;;5015735;28;20080;-64
2022/03/24 09:52:33;;;;;;;28.30;19.90;;;33.80;38.60;;;;;;5016279;28;20084;-64
2022/03/24 09:54:59;;;;;;;23.10;16.92;;;33.80;38.20;;;;;;5016344;28;20030;-62
2022/03/24 09:57:24;;;;;;;24.20;19.35;;;33.60;37.10;;;;;;5006028;28;20037;-63
2022/03/24 09:59:51;;;;;;;27.60;22.20;;;33.60;37.00;;;;;;5006929;28;20025;-63
2022/03/24 10:02:18;;;;;;;30.00;23.30;;;33.50;38.40;;;;;;5013578;28;20030;-64
2022/03/24 10:04:55;;;;;;;31.23;24.25;;;33.30;39.10;;;;;;5015781;28;20037;-63
2022/03/24 10:07:25;;;;;;;29.42;23.92;;;33.20;39.20;;;;;;5014985;28;20355;-63
2022/03/24 10:09:55;;;;;;;28.70;22.15;;;33.00;39.30;;;;;;5015568;28;20100;-62
2022/03/24 10:12:37;;;;;;;27.27;20.92;;;33.00;39.40;;;;;;5017046;28;20097;-62
2022/03/24 10:15:09;;;;;;;29.88;22.17;;;33.20;39.20;;;;;;5019594;28;20060;-63
2022/03/24 10:17:37;;;;;;;26.38;19.67;;;33.30;38.40;;;;;;5010543;28;20032;-63
2022/03/24 10:20:08;;;;;;;28.40;20.67;;;33.40;38.30;;;;;;5014607;28;20062;-64
2022/03/24 10:22:35;;;;;;;29.50;21.48;;;33.40;37.30;;;;;;5014934;28;20054;-68
2022/03/24 10:25:17;;;;;;;27.30;21.50;;;33.30;36.90;;;;;;5020420;28;20049;-64
2022/03/24 10:27:43;;;;;;;27.48;22.73;;;33.30;38.00;;;;;;5015617;28;20025;-64
2022/03/24 10:30:10;;;;;;;28.05;21.77;;;33.40;38.30;;;;;;5014303;28;20104;-63
2022/03/24 10:32:36;;;;;;;31.08;21.13;;;33.30;37.50;;;;;;5015479;28;20029;-66
2022/03/24 10:35:10;;;;;;;29.70;22.88;;;33.20;37.00;;;;;;5015156;28;20521;-64
2022/03/24 10:37:37;;;;;;;28.58;22.65;;;33.10;37.30;;;;;;5031406;28;20037;-66
2022/03/24 10:40:08;;;;;;;30.88;22.27;;;33.00;37.60;;;;;;5016226;28;20470;-66
2022/03/24 10:42:36;;;;;;;31.75;23.75;;;33.00;37.80;;;;;;5020128;28;20048;-64
2022/03/24 10:45:20;;;;;;;32.88;22.50;;;33.00;37.50;;;;;;5027094;28;20454;-66
2022/03/24 10:47:56;;;;;;;29.60;22.83;;;33.00;37.20;;;;;;5024791;28;20030;-63
2022/03/24 10:50:37;;;;;;;27.33;21.23;;;32.80;37.50;;;;;;5027300;28;20466;-66
2022/03/24 10:53:05;;;;;;;31.52;23.00;;;32.80;38.20;;;;;;5027478;28;20033;-62
2022/03/24 10:55:43;;;;;;;33.65;21.33;;;33.10;38.00;;;;;;5018166;28;20038;-66
2022/03/24 10:58:22;;;;;;;29.13;20.55;;;33.20;36.90;;;;;;4998904;28;20542;-65
2022/03/24 11:00:50;;;;;;;31.42;20.05;;;33.20;37.60;;;;;;5033124;28;20030;-64
2022/03/24 11:03:17;;;;;;;32.40;19.20;;;33.20;37.50;;;;;;5019899;28;20038;-66
2022/03/24 11:05:43;;;;;;;28.30;18.50;;;33.20;37.20;;;;;;5027510;28;20128;-64
2022/03/24 11:08:09;;;;;;;27.42;18.63;;;33.20;37.90;;;;;;5029354;28;20208;-66
2022/03/24 11:10:45;;;;;;;30.42;19.83;;;33.30;38.20;;;;;;5023337;28;20029;-66
2022/03/24 11:13:13;;;;;;;30.30;19.05;;;33.40;39.00;;;;;;5021036;28;20041;-66
2022/03/24 11:15:40;;;;;;;27.08;16.48;;;33.60;38.40;;;;;;5022170;28;20046;-65
2022/03/24 11:18:07;;;;;;;27.85;16.60;;;33.60;38.50;;;;;;5012239;28;20076;-64
2022/03/24 11:20:37;;;;;;;26.95;15.70;;;33.30;38.50;;;;;;5010741;28;20033;-64
2022/03/24 11:23:16;;;;;;;23.65;14.80;;;33.10;39.30;;;;;;5021403;28;20036;-62
2022/03/24 11:25:43;;;;;;;28.42;15.80;;;33.00;39.40;;;;;;5021200;28;20111;-63
2022/03/24 11:28:13;;;;;;;25.63;15.65;;;32.80;39.10;;;;;;5025010;28;20492;-63
2022/03/24 11:30:39;;;;;;;23.85;14.05;;;32.70;39.40;;;;;;5023190;28;20037;-62
2022/03/24 11:33:05;;;;;;;24.50;14.43;;;32.60;39.10;;;;;;5018650;28;20018;-66
2022/03/24 11:35:35;;;;;;;24.25;14.70;;;32.70;39.40;;;;;;5017813;28;20470;-64
2022/03/24 11:38:03;;;;;;;26.13;14.15;;;32.80;39.30;;;;;;5013960;28;20034;-62
2022/03/24 11:40:34;;;;;;;27.05;15.13;;;32.80;39.40;;;;;;5021401;28;20477;-66
2022/03/24 11:43:20;;;;;;;25.23;14.77;;;32.60;39.60;;;;;;5020724;28;20396;-64
2022/03/24 11:45:52;;;;;;;28.17;15.43;;;32.30;39.60;;;;;;4994503;28;20022;-64
2022/03/24 11:48:30;;;;;;;26.30;14.93;;;32.30;39.80;;;;;;5022462;28;20037;-66
2022/03/24 11:50:55;;;;;;;30.65;16.13;;;32.10;39.90;;;;;;5018191;28;20037;-66
2022/03/24 11:53:27;;;;;;;28.08;15.98;;;32.00;40.10;;;;;;5013585;28;20037;-63
2022/03/24 11:55:58;;;;;;;;;;;32.00;40.50;;;;;;5013836;28;20034;-63
2022/03/24 11:58:25;;;;;;;28.27;16.38;;;31.90;40.50;;;;;;5001909;28;19984;-67
2022/03/24 12:00:53;;;;;;;30.20;17.13;;;31.90;40.10;;;;;;5013402;28;20038;-64
2022/03/24 12:03:44;;;;;;;30.48;17.65;;;31.80;40.20;;;;;;5009057;28;20022;-66
2022/03/24 12:06:13;;;;;;;28.42;16.75;;;31.60;40.40;;;;;;4993356;28;20096;-66
2022/03/24 12:08:46;;;;;;;30.35;18.48;;;31.70;40.90;;;;;;4995279;28;20026;-63
2022/03/24 12:11:42;;;;;;;30.45;17.88;;;31.90;40.60;;;;;;5012794;28;20033;-65
2022/03/24 12:14:09;;;;;;;33.83;19.95;;;32.10;41.10;;;;;;5008231;28;20505;-64
2022/03/24 12:16:38;;;;;;;30.27;19.33;;;32.00;40.30;;;;;;5013488;28;20050;-63
2022/03/24 12:19:05;;;;;;;32.40;21.00;;;32.00;40.50;;;;;;5016256;28;20018;-65
2022/03/24 12:21:32;;;;;;;32.30;19.98;;;32.00;40.80;;;;;;5013960;28;20501;-62
2022/03/24 12:24:18;;;;;;;31.50;20.08;;;31.90;40.70;;;;;;5012589;28;20026;-63
2022/03/24 12:26:55;;;;;;;33.63;21.80;;;31.80;40.70;;;;;;5012850;28;20132;-64
2022/03/24 12:29:23;;;;;;;33.42;21.10;;;31.40;40.80;;;;;;5012744;28;20595;-63
2022/03/24 12:31:58;;;;;;;34.38;22.42;;;30.80;41.50;;;;;;5012432;28;20029;-63
2022/03/24 12:34:29;;;;;;;36.75;22.98;;;30.30;42.20;;;;;;5013055;28;20065;-64
2022/03/24 12:36:55;;;;;;;36.50;22.00;;;29.90;42.30;;;;;;5012249;28;20033;-63
2022/03/24 12:39:31;;;;;;;33.97;21.85;;;29.80;42.40;;;;;;5013096;28;20057;-63